Time;durP1;ratioP1;P1;durP2;ratioP2;P2;SDS_P1;SDS_P2;PMS_P1;PMS_P2;Temp;Humidity;BMP_temperature;BMP_pressure;BME280_temperature;BME280_humidity;BME280_pressure;Samples;Min_cycle;Max_cycle;Signal;HPM_P1;HPM_P2
2022/06/28 00:01:43;;;;;;;;;;;;;;;;;;5092857;28;1951;-66
2022/06/28 00:04:08;;;;;;;;;;;;;;;;;;5110161;28;1315;-66
2022/06/28 00:06:34;;;;;;;;;;;;;;;;;;5110094;28;837;-66
2022/06/28 00:08:59;;;;;;;;;;;;;;;;;;5109619;28;845;-66
2022/06/28 00:11:24;;;;;;;;;;;;;;;;;;5111731;28;927;-66
2022/06/28 00:13:50;;;;;;;;;;;;;;;;;;5110281;28;1289;-66
2022/06/28 00:16:16;;;;;;;;;;;;;;;;;;5111150;28;870;-66
2022/06/28 00:18:42;;;;;;;;;;;;;;;;;;5109798;28;852;-65
2022/06/28 00:21:08;;;;;;;;;;;;;;;;;;5109910;28;1918;-66
2022/06/28 00:23:34;;;;;;;;;;;;;;;;;;5109740;28;907;-66
2022/06/28 00:25:59;;;;;;;;;;;;;;;;;;5111036;28;895;-66
2022/06/28 00:28:25;;;;;;;;;;;;;;;;;;5111153;28;1126;-67
2022/06/28 00:30:50;;;;;;;;;;;;;;;;;;5093267;28;1245;-66
2022/06/28 00:33:15;;;;;;;;;;;;;;;;;;5109629;28;1706;-67
2022/06/28 00:35:40;;;;;;;;;;;;;;;;;;5110025;28;1198;-66
2022/06/28 00:38:06;;;;;;;;;;;;;;;;;;5110676;28;808;-67
2022/06/28 00:40:32;;;;;;;;;;;;;;;;;;5110054;28;1917;-66
2022/06/28 00:42:58;;;;;;;;;;;;;;;;;;5112176;28;1005;-67
2022/06/28 00:45:23;;;;;;;;;;;;;;;;;;5111435;28;982;-67
2022/06/28 00:47:48;;;;;;;;;;;;;;;;;;5112063;28;773;-67
2022/06/28 00:50:14;;;;;;;;;;;;;;;;;;5111056;28;896;-67
2022/06/28 00:52:58;;;;;;;;;;;;;;;;;;5112399;28;1010;-67
2022/06/28 00:55:23;;;;;;;;;;;;;;;;;;5110540;28;1002;-67
2022/06/28 00:57:48;;;;;;;;;;;;;;;;;;5110568;28;1194;-67
2022/06/28 01:00:14;;;;;;;;;;;;;;;;;;5112432;28;1910;-66
2022/06/28 01:02:39;;;;;;;;;;;;;;;;;;5115372;28;974;-66
2022/06/28 01:05:05;;;;;;;;;;;;;;;;;;5097827;28;1202;-67
2022/06/28 01:07:30;;;;;;;;;;;;;;;;;;5116625;27;1396;-67
2022/06/28 01:09:55;;;;;;;;;;;;;;;;;;5114477;28;848;-66
2022/06/28 01:12:21;;;;;;;;;;;;;;;;;;5115945;28;1040;-67
2022/06/28 01:14:46;;;;;;;;;;;;;;;;;;5115401;28;918;-67
2022/06/28 01:17:12;;;;;;;;;;;;;;;;;;5114828;28;859;-67
2022/06/28 01:19:37;;;;;;;;;;;;;;;;;;5113628;28;1960;-67
2022/06/28 01:22:04;;;;;;;;;;;;;;;;;;5113128;28;837;-68
2022/06/28 01:24:30;;;;;;;;;;;;;;;;;;5113301;28;1309;-66
2022/06/28 01:26:56;;;;;;;;;;;;;;;;;;5096495;28;1393;-67
2022/06/28 01:29:21;;;;;;;;;;;;;;;;;;5113059;28;963;-67
2022/06/28 01:31:47;;;;;;;;;;;;;;;;;;5113221;28;1286;-67
2022/06/28 01:34:14;;;;;;;;;;;;;;;;;;5112508;28;1425;-66
2022/06/28 01:36:39;;;;;;;;;;;;;;;;;;5114307;28;903;-67
2022/06/28 01:39:05;;;;;;;;;;;;;;;;;;5113852;28;1053;-67
2022/06/28 01:41:33;;;;;;;;;;;;;;;;;;5114616;28;1913;-67
2022/06/28 01:43:59;;;;;;;;;;;;;;;;;;5114097;28;785;-67
2022/06/28 01:46:26;;;;;;;;;;;;;;;;;;5114864;28;911;-67
2022/06/28 01:48:51;;;;;;;;;;;;;;;;;;5114212;28;792;-67
2022/06/28 01:51:17;;;;;;;;;;;;;;;;;;5112796;28;880;-67
2022/06/28 01:53:42;;;;;;;;;;;;;;;;;;5112649;28;999;-67
2022/06/28 01:56:07;;;;;;;;;;;;;;;;;;5112293;28;1186;-65
2022/06/28 01:58:32;;;;;;;;;;;;;;;;;;5112801;28;1221;-65
2022/06/28 02:00:58;;;;;;;;;;;;;;;;;;5113602;28;1897;-66
2022/06/28 02:03:23;;;;;;;;;;;;;;;;;;5113893;28;1002;-66
2022/06/28 02:05:48;;;;;;;;;;;;;;;;;;5112136;28;1470;-67
2022/06/28 02:08:13;;;;;;;;;;;;;;;;;;5094952;28;1305;-67
2022/06/28 02:10:39;;;;;;;;;;;;;;;;;;5113621;28;899;-66
2022/06/28 02:13:04;;;;;;;;;;;;;;;;;;5110250;28;1253;-67
2022/06/28 02:15:29;;;;;;;;;;;;;;;;;;5113971;28;867;-66
2022/06/28 02:17:57;;;;;;;;;;;;;;;;;;5113058;28;844;-66
2022/06/28 02:20:22;;;;;;;;;;;;;;;;;;5094891;28;2004;-66
2022/06/28 02:22:47;;;;;;;;;;;;;;;;;;5113486;28;966;-66
2022/06/28 02:25:13;;;;;;;;;;;;;;;;;;5112914;28;950;-67
2022/06/28 02:27:38;;;;;;;;;;;;;;;;;;5112068;28;1010;-66
2022/06/28 02:30:03;;;;;;;;;;;;;;;;;;5111644;28;1278;-66
2022/06/28 02:32:29;;;;;;;;;;;;;;;;;;5112315;28;1073;-67
2022/06/28 02:40:22;;;;;;;;;;;;;;;;;;5114538;28;1914;-67
2022/06/28 02:42:48;;;;;;;;;;;;;;;;;;5114528;28;875;-67
2022/06/28 02:45:13;;;;;;;;;;;;;;;;;;5113739;28;923;-66
2022/06/28 02:47:38;;;;;;;;;;;;;;;;;;5113880;28;861;-66
2022/06/28 02:50:04;;;;;;;;;;;;;;;;;;5112038;28;1189;-66
2022/06/28 02:52:29;;;;;;;;;;;;;;;;;;5114312;28;887;-67
2022/06/28 02:54:54;;;;;;;;;;;;;;;;;;5113418;28;1054;-66
2022/06/28 02:57:19;;;;;;;;;;;;;;;;;;5113368;28;1026;-66
2022/06/28 02:59:45;;;;;;;;;;;;;;;;;;5112678;28;1957;-66
2022/06/28 03:02:10;;;;;;;;;;;;;;;;;;5112486;28;895;-66
2022/06/28 03:04:35;;;;;;;;;;;;;;;;;;5113003;28;848;-66
2022/06/28 03:07:00;;;;;;;;;;;;;;;;;;5112321;28;887;-66
2022/06/28 03:09:26;;;;;;;;;;;;;;;;;;5111076;28;876;-66
2022/06/28 03:11:51;;;;;;;;;;;;;;;;;;5111132;28;824;-67
2022/06/28 03:14:16;;;;;;;;;;;;;;;;;;5111930;28;836;-66
2022/06/28 03:16:41;;;;;;;;;;;;;;;;;;5112653;28;804;-66
2022/06/28 03:19:07;;;;;;;;;;;;;;;;;;5112184;28;872;-67
2022/06/28 03:21:32;;;;;;;;;;;;;;;;;;5112266;28;1910;-66
2022/06/28 03:23:58;;;;;;;;;;;;;;;;;;5110328;28;1070;-67
2022/06/28 03:26:23;;;;;;;;;;;;;;;;;;5111876;28;1151;-66
2022/06/28 03:28:48;;;;;;;;;;;;;;;;;;5110091;28;1198;-66
2022/06/28 03:31:13;;;;;;;;;;;;;;;;;;5111662;28;805;-66
2022/06/28 03:33:38;;;;;;;;;;;;;;;;;;5110497;28;1261;-67
2022/06/28 03:36:04;;;;;;;;;;;;;;;;;;5111787;28;891;-66
2022/06/28 03:38:29;;;;;;;;;;;;;;;;;;5112247;28;1153;-66
2022/06/28 03:40:57;;;;;;;;;;;;;;;;;;5110601;28;1914;-66
2022/06/28 03:43:22;;;;;;;;;;;;;;;;;;5111847;28;907;-66
2022/06/28 03:45:48;;;;;;;;;;;;;;;;;;5111763;28;746;-66
2022/06/28 03:48:13;;;;;;;;;;;;;;;;;;5111623;28;781;-66
2022/06/28 03:50:38;;;;;;;;;;;;;;;;;;5110853;28;1103;-67
2022/06/28 03:53:03;;;;;;;;;;;;;;;;;;5092697;28;1158;-67
2022/06/28 03:55:28;;;;;;;;;;;;;;;;;;5111767;28;1042;-67
2022/06/28 03:57:54;;;;;;;;;;;;;;;;;;5110034;28;937;-66
2022/06/28 04:00:19;;;;;;;;;;;;;;;;;;5111124;28;1972;-66
2022/06/28 04:02:44;;;;;;;;;;;;;;;;;;5111699;28;1045;-67
2022/06/28 04:05:09;;;;;;;;;;;;;;;;;;5092947;28;1361;-67
2022/06/28 04:07:35;;;;;;;;;;;;;;;;;;5111459;28;891;-66
2022/06/28 04:10:00;;;;;;;;;;;;;;;;;;5092549;28;1312;-66
2022/06/28 04:12:25;;;;;;;;;;;;;;;;;;5110173;28;904;-67
2022/06/28 04:14:50;;;;;;;;;;;;;;;;;;5111744;28;1061;-66
2022/06/28 04:17:16;;;;;;;;;;;;;;;;;;5109763;28;820;-66
2022/06/28 04:19:41;;;;;;;;;;;;;;;;;;5112131;28;1964;-66
2022/06/28 04:22:06;;;;;;;;;;;;;;;;;;5111597;28;792;-66
2022/06/28 04:24:31;;;;;;;;;;;;;;;;;;5094071;28;1246;-66
2022/06/28 04:26:56;;;;;;;;;;;;;;;;;;5093465;28;1190;-66
2022/06/28 04:29:22;;;;;;;;;;;;;;;;;;5110381;28;1421;-66
2022/06/28 04:31:47;;;;;;;;;;;;;;;;;;5110441;28;1053;-66
2022/06/28 04:34:12;;;;;;;;;;;;;;;;;;5111497;28;1075;-66
2022/06/28 04:36:37;;;;;;;;;;;;;;;;;;5111298;28;805;-66
2022/06/28 04:39:03;;;;;;;;;;;;;;;;;;5109794;28;1284;-66
2022/06/28 04:41:28;;;;;;;;;;;;;;;;;;5108423;28;1878;-66
2022/06/28 04:43:53;;;;;;;;;;;;;;;;;;5109077;28;1119;-66
2022/06/28 04:46:19;;;;;;;;;;;;;;;;;;5124427;27;1124;-67
2022/06/28 04:48:44;;;;;;;;;;;;;;;;;;5131705;27;832;-66
2022/06/28 04:51:13;;;;;;;;;;;;;;;;;;5129338;27;1170;-66
2022/06/28 04:53:42;;;;;;;;;;;;;;;;;;5113586;28;1233;-66
2022/06/28 04:56:08;;;;;;;;;;;;;;;;;;5130890;27;1076;-66
2022/06/28 04:58:33;;;;;;;;;;;;;;;;;;5130015;27;867;-66
2022/06/28 05:00:58;;;;;;;;;;;;;;;;;;5131165;27;1890;-66
2022/06/28 05:03:24;;;;;;;;;;;;;;;;;;5129824;28;809;-67
2022/06/28 05:05:49;;;;;;;;;;;;;;;;;;5130451;27;872;-66
2022/06/28 05:08:14;;;;;;;;;;;;;;;;;;5129607;28;882;-66
2022/06/28 05:10:40;;;;;;;;;;;;;;;;;;5131962;28;872;-66
2022/06/28 05:13:05;;;;;;;;;;;;;;;;;;5129538;28;1205;-66
2022/06/28 05:15:30;;;;;;;;;;;;;;;;;;5129828;27;1129;-66
2022/06/28 05:17:55;;;;;;;;;;;;;;;;;;5131222;27;907;-67
2022/06/28 05:20:21;;;;;;;;;;;;;;;;;;5130639;27;1972;-66
2022/06/28 05:22:46;;;;;;;;;;;;;;;;;;5131601;28;793;-66
2022/06/28 05:25:11;;;;;;;;;;;;;;;;;;5129207;28;848;-66
2022/06/28 05:27:37;;;;;;;;;;;;;;;;;;5131059;28;929;-67
2022/06/28 05:30:02;;;;;;;;;;;;;;;;;;5129276;28;1189;-66
2022/06/28 05:32:29;;;;;;;;;;;;;;;;;;5131217;27;1285;-66
2022/06/28 05:34:54;;;;;;;;;;;;;;;;;;5131318;27;863;-66
2022/06/28 05:37:19;;;;;;;;;;;;;;;;;;5130932;28;1181;-66
2022/06/28 05:39:44;;;;;;;;;;;;;;;;;;5131037;27;1906;-66
2022/06/28 05:42:10;;;;;;;;;;;;;;;;;;5129002;27;963;-66
2022/06/28 05:44:35;;;;;;;;;;;;;;;;;;5129711;27;1425;-66
2022/06/28 05:47:00;;;;;;;;;;;;;;;;;;5131142;27;1150;-67
2022/06/28 05:49:26;;;;;;;;;;;;;;;;;;5134207;27;938;-66
2022/06/28 05:51:51;;;;;;;;;;;;;;;;;;5133341;27;959;-67
2022/06/28 05:54:16;;;;;;;;;;;;;;;;;;5134463;27;915;-67
2022/06/28 05:56:42;;;;;;;;;;;;;;;;;;5134942;27;967;-67
2022/06/28 05:59:07;;;;;;;;;;;;;;;;;;5134342;27;847;-67
2022/06/28 06:01:32;;;;;;;;;;;;;;;;;;5116178;27;1907;-66
2022/06/28 06:03:58;;;;;;;;;;;;;;;;;;5135027;27;902;-67
2022/06/28 06:06:24;;;;;;;;;;;;;;;;;;5132861;27;1201;-67
2022/06/28 06:08:50;;;;;;;;;;;;;;;;;;5134638;27;907;-66
2022/06/28 06:11:16;;;;;;;;;;;;;;;;;;5132323;27;1462;-67
2022/06/28 06:13:41;;;;;;;;;;;;;;;;;;5134701;27;825;-66
2022/06/28 06:16:07;;;;;;;;;;;;;;;;;;5115961;27;1217;-66
2022/06/28 06:18:32;;;;;;;;;;;;;;;;;;5132843;27;912;-66
2022/06/28 06:20:57;;;;;;;;;;;;;;;;;;5134993;27;1929;-66
2022/06/28 06:23:23;;;;;;;;;;;;;;;;;;5132770;27;789;-67
2022/06/28 06:25:48;;;;;;;;;;;;;;;;;;5136513;27;777;-66
2022/06/28 06:28:13;;;;;;;;;;;;;;;;;;5136681;27;918;-67
2022/06/28 06:30:39;;;;;;;;;;;;;;;;;;5134033;27;1335;-66
2022/06/28 06:33:04;;;;;;;;;;;;;;;;;;5133585;27;1189;-66
2022/06/28 06:35:29;;;;;;;;;;;;;;;;;;5136692;27;946;-66
2022/06/28 06:38:00;;;;;;;;;;;;;;;;;;5133499;27;1122;-66
2022/06/28 06:40:29;;;;;;;;;;;;;;;;;;5133675;27;1905;-65
2022/06/28 06:42:54;;;;;;;;;;;;;;;;;;5133396;27;839;-65
2022/06/28 06:45:20;;;;;;;;;;;;;;;;;;5125651;27;1185;-66
2022/06/28 06:47:45;;;;;;;;;;;;;;;;;;5133428;27;1230;-66
2022/06/28 06:50:10;;;;;;;;;;;;;;;;;;5135097;27;875;-66
2022/06/28 06:52:36;;;;;;;;;;;;;;;;;;5134934;27;931;-66
2022/06/28 06:55:01;;;;;;;;;;;;;;;;;;5134224;27;1190;-66
2022/06/28 06:57:27;;;;;;;;;;;;;;;;;;5132688;27;870;-66
2022/06/28 06:59:52;;;;;;;;;;;;;;;;;;5132532;27;1901;-66
2022/06/28 07:02:17;;;;;;;;;;;;;;;;;;5132319;27;965;-66
2022/06/28 07:04:42;;;;;;;;;;;;;;;;;;5132627;27;1244;-66
2022/06/28 07:07:08;;;;;;;;;;;;;;;;;;5131874;27;875;-66
2022/06/28 07:09:33;;;;;;;;;;;;;;;;;;5132985;27;892;-66
2022/06/28 07:11:59;;;;;;;;;;;;;;;;;;5131519;27;1190;-66
2022/06/28 07:14:24;;;;;;;;;;;;;;;;;;5131494;27;757;-66
2022/06/28 07:16:49;;;;;;;;;;;;;;;;;;5133238;27;883;-67
2022/06/28 07:19:14;;;;;;;;;;;;;;;;;;5132711;27;999;-66
2022/06/28 07:21:40;;;;;;;;;;;;;;;;;;5131930;27;1955;-66
2022/06/28 07:24:07;;;;;;;;;;;;;;;;;;5133316;27;867;-66
2022/06/28 07:26:35;;;;;;;;;;;;;;;;;;5132448;27;825;-66
2022/06/28 07:29:00;;;;;;;;;;;;;;;;;;5133304;27;991;-66
2022/06/28 07:31:27;;;;;;;;;;;;;;;;;;5131329;27;902;-65
2022/06/28 07:33:52;;;;;;;;;;;;;;;;;;5131896;27;1103;-66
2022/06/28 07:36:18;;;;;;;;;;;;;;;;;;5132657;27;887;-65
2022/06/28 07:38:43;;;;;;;;;;;;;;;;;;5132916;27;1113;-66
2022/06/28 07:41:08;;;;;;;;;;;;;;;;;;5131246;27;1973;-66
2022/06/28 07:43:34;;;;;;;;;;;;;;;;;;5112841;27;1292;-66
2022/06/28 07:46:00;;;;;;;;;;;;;;;;;;5114048;27;1139;-66
2022/06/28 07:48:25;;;;;;;;;;;;;;;;;;5132215;27;824;-66
2022/06/28 07:53:34;;;;;;;;;;;;;;;;;;5132079;27;691;-66
2022/06/28 07:56:00;;;;;;;;;;;;;;;;;;5130928;27;1280;-66
2022/06/28 07:58:25;;;;;;;;;;;;;;;;;;5130586;27;875;-66
2022/06/28 08:00:51;;;;;;;;;;;;;;;;;;5131034;27;1943;-66
2022/06/28 08:03:16;;;;;;;;;;;;;;;;;;5130793;27;1095;-66
2022/06/28 08:05:42;;;;;;;;;;;;;;;;;;5130845;27;1398;-66
2022/06/28 08:08:07;;;;;;;;;;;;;;;;;;5130648;27;1347;-66
2022/06/28 08:10:33;;;;;;;;;;;;;;;;;;5112169;27;1576;-66
2022/06/28 08:12:58;;;;;;;;;;;;;;;;;;5131048;27;829;-67
2022/06/28 08:15:23;;;;;;;;;;;;;;;;;;5131692;27;1168;-66
2022/06/28 08:17:48;;;;;;;;;;;;;;;;;;5132507;27;1038;-66
2022/06/28 08:20:13;;;;;;;;;;;;;;;;;;5132381;27;1955;-66
2022/06/28 08:22:39;;;;;;;;;;;;;;;;;;5133148;27;824;-67
2022/06/28 08:25:04;;;;;;;;;;;;;;;;;;5132241;27;1026;-66
2022/06/28 08:27:30;;;;;;;;;;;;;;;;;;5131436;27;910;-66
2022/06/28 08:29:55;;;;;;;;;;;;;;;;;;5131357;27;840;-67
2022/06/28 08:32:21;;;;;;;;;;;;;;;;;;5132550;27;1080;-66
2022/06/28 08:34:47;;;;;;;;;;;;;;;;;;5114597;27;1320;-66
2022/06/28 08:37:12;;;;;;;;;;;;;;;;;;5132237;27;745;-66
2022/06/28 08:39:38;;;;;;;;;;;;;;;;;;5130640;27;1437;-67
2022/06/28 08:42:04;;;;;;;;;;;;;;;;;;5118277;27;2020;-67
2022/06/28 08:44:31;;;;;;;;;;;;;;;;;;5119016;27;1225;-66
2022/06/28 08:46:56;;;;;;;;;;;;;;;;;;5130543;27;1194;-66
2022/06/28 08:49:25;;;;;;;;;;;;;;;;;;5129878;27;1151;-66
2022/06/28 08:51:51;;;;;;;;;;;;;;;;;;5109470;28;1179;-67
2022/06/28 08:54:18;;;;;;;;;;;;;;;;;;5109419;28;903;-67
2022/06/28 08:56:43;;;;;;;;;;;;;;;;;;5110933;28;1002;-66
2022/06/28 08:59:09;;;;;;;;;;;;;;;;;;5110098;28;1362;-67
2022/06/28 09:01:35;;;;;;;;;;;;;;;;;;5109430;28;1968;-67
2022/06/28 09:04:02;;;;;;;;;;;;;;;;;;5109906;28;1182;-67
2022/06/28 09:06:27;;;;;;;;;;;;;;;;;;5110776;28;840;-67
2022/06/28 09:08:53;;;;;;;;;;;;;;;;;;5111024;28;871;-66
2022/06/28 09:11:18;;;;;;;;;;;;;;;;;;5109532;28;915;-67
2022/06/28 09:13:43;;;;;;;;;;;;;;;;;;5109532;28;1161;-67
2022/06/28 09:16:09;;;;;;;;;;;;;;;;;;5109223;28;1329;-67
2022/06/28 09:18:34;;;;;;;;;;;;;;;;;;5092523;28;1691;-67
2022/06/28 09:21:00;;;;;;;;;;;;;;;;;;5111138;28;1897;-67
2022/06/28 09:23:33;;;;;;;;;;;;;;;;;;5113081;28;1323;-67
2022/06/28 09:26:18;;;;;;;;;;;;;;;;;;5113714;28;1213;-67
2022/06/28 09:28:47;;;;;;;;;;;;;;;;;;5115250;28;1047;-67
2022/06/28 09:31:30;;;;;;;;;;;;;;;;;;5114363;28;837;-67
2022/06/28 09:34:04;;;;;;;;;;;;;;;;;;5114425;28;1195;-67
2022/06/28 09:36:34;;;;;;;;;;;;;;;;;;5113215;28;1182;-68
2022/06/28 09:39:10;;;;;;;;;;;;;;;;;;5113455;28;1479;-67
2022/06/28 09:41:35;;;;;;;;;;;;;;;;;;5113031;28;2043;-67
2022/06/28 09:44:03;;;;;;;;;;;;;;;;;;5112619;28;1152;-67
2022/06/28 09:46:29;;;;;;;;;;;;;;;;;;5113219;28;1288;-67
2022/06/28 09:48:56;;;;;;;;;;;;;;;;;;5114447;28;918;-68
2022/06/28 09:51:23;;;;;;;;;;;;;;;;;;5113467;28;1219;-67
2022/06/28 09:53:51;;;;;;;;;;;;;;;;;;5114617;28;864;-67
2022/06/28 09:56:18;;;;;;;;;;;;;;;;;;5113623;28;1205;-67
2022/06/28 09:58:43;;;;;;;;;;;;;;;;;;5114966;28;947;-67
2022/06/28 10:01:08;;;;;;;;;;;;;;;;;;5114877;28;1949;-67
2022/06/28 10:03:34;;;;;;;;;;;;;;;;;;5114765;28;805;-67
2022/06/28 10:05:59;;;;;;;;;;;;;;;;;;5114441;28;786;-67
2022/06/28 10:08:25;;;;;;;;;;;;;;;;;;5114934;28;895;-67
2022/06/28 10:10:51;;;;;;;;;;;;;;;;;;5114420;28;785;-67
2022/06/28 10:16:04;;;;;;;;;;;;;;;;;;5114275;28;685;-67
2022/06/28 10:18:31;;;;;;;;;;;;;;;;;;5112194;28;1368;-67
2022/06/28 10:20:56;;;;;;;;;;;;;;;;;;5113588;28;1902;-67
2022/06/28 10:23:24;;;;;;;;;;;;;;;;;;5113615;28;1057;-66
2022/06/28 10:26:04;;;;;;;;;;;;;;;;;;5113700;28;867;-67
2022/06/28 10:28:43;;;;;;;;;;;;;;;;;;5113437;28;958;-67
2022/06/28 10:31:23;;;;;;;;;;;;;;;;;;5112349;28;1502;-67
2022/06/28 10:33:51;;;;;;;;;;;;;;;;;;5112522;28;1324;-67
2022/06/28 10:36:17;;;;;;;;;;;;;;;;;;5111867;28;1183;-67
2022/06/28 10:39:03;;;;;;;;;;;;;;;;;;5095283;28;1658;-67
2022/06/28 10:41:38;;;;;;;;;;;;;;;;;;5113361;28;1914;-67
2022/06/28 10:44:22;;;;;;;;;;;;;;;;;;5111728;28;1313;-67
2022/06/28 10:46:50;;;;;;;;;;;;;;;;;;5113262;27;848;-67
2022/06/28 10:49:15;;;;;;;;;;;;;;;;;;5111806;28;1311;-67
2022/06/28 10:51:42;;;;;;;;;;;;;;;;;;5113474;28;907;-66
2022/06/28 10:54:09;;;;;;;;;;;;;;;;;;5112999;28;899;-66
2022/06/28 10:56:37;;;;;;;;;;;;;;;;;;5113611;28;863;-66
2022/06/28 10:59:04;;;;;;;;;;;;;;;;;;5113362;28;844;-66
2022/06/28 11:01:38;;;;;;;;;;;;;;;;;;5113162;28;1970;-66
2022/06/28 11:04:09;;;;;;;;;;;;;;;;;;5112975;28;998;-66
2022/06/28 11:06:41;;;;;;;;;;;;;;;;;;5111756;28;1205;-66
2022/06/28 11:09:27;;;;;;;;;;;;;;;;;;5111800;28;1182;-67
2022/06/28 11:12:11;;;;;;;;;;;;;;;;;;5090610;27;1587;-66
2022/06/28 11:14:46;;;;;;;;;;;;;;;;;;5111627;28;1543;-66
2022/06/28 11:17:15;;;;;;;;;;;;;;;;;;5112472;28;900;-66
2022/06/28 11:19:50;;;;;;;;;;;;;;;;;;5112963;28;805;-66
2022/06/28 11:22:16;;;;;;;;;;;;;;;;;;5111120;28;1972;-67
2022/06/28 11:24:43;;;;;;;;;;;;;;;;;;5112909;28;859;-66
2022/06/28 11:27:21;;;;;;;;;;;;;;;;;;5112429;28;1077;-65
2022/06/28 11:29:53;;;;;;;;;;;;;;;;;;5111676;28;828;-65
2022/06/28 11:32:20;;;;;;;;;;;;;;;;;;5112273;28;937;-66
2022/06/28 11:34:55;;;;;;;;;;;;;;;;;;5113587;27;813;-66
2022/06/28 11:37:21;;;;;;;;;;;;;;;;;;5111477;28;813;-66
2022/06/28 11:39:46;;;;;;;;;;;;;;;;;;5113045;27;879;-65
2022/06/28 11:42:13;;;;;;;;;;;;;;;;;;5112557;28;1959;-65
2022/06/28 11:44:39;;;;;;;;;;;;;;;;;;5113093;28;821;-66
2022/06/28 11:47:07;;;;;;;;;;;;;;;;;;5113006;28;1062;-66
2022/06/28 11:49:33;;;;;;;;;;;;;;;;;;5113473;28;903;-65
2022/06/28 11:51:59;;;;;;;;;;;;;;;;;;5112647;28;911;-66
2022/06/28 11:54:25;;;;;;;;;;;;;;;;;;5111088;28;896;-66
2022/06/28 11:56:51;;;;;;;;;;;;;;;;;;5112642;28;959;-65
2022/06/28 11:59:16;;;;;;;;;;;;;;;;;;5110606;28;875;-66
2022/06/28 12:01:42;;;;;;;;;;;;;;;;;;5112088;28;1906;-66
2022/06/28 12:04:08;;;;;;;;;;;;;;;;;;5110612;28;1312;-66
2022/06/28 12:06:34;;;;;;;;;;;;;;;;;;5111770;28;841;-66
2022/06/28 12:08:59;;;;;;;;;;;;;;;;;;5111538;28;875;-67
2022/06/28 12:11:34;;;;;;;;;;;;;;;;;;5111396;28;943;-66
2022/06/28 12:14:02;;;;;;;;;;;;;;;;;;5111552;28;896;-67
2022/06/28 12:16:31;;;;;;;;;;;;;;;;;;5111418;28;908;-67
2022/06/28 12:18:57;;;;;;;;;;;;;;;;;;5111943;28;993;-66
2022/06/28 12:21:23;;;;;;;;;;;;;;;;;;5111472;28;1921;-66
2022/06/28 12:23:49;;;;;;;;;;;;;;;;;;5113293;27;804;-66
2022/06/28 12:26:14;;;;;;;;;;;;;;;;;;5112815;28;876;-66
2022/06/28 12:28:39;;;;;;;;;;;;;;;;;;5113742;28;1010;-66
2022/06/28 12:31:05;;;;;;;;;;;;;;;;;;5113130;28;886;-67
2022/06/28 12:33:30;;;;;;;;;;;;;;;;;;5112474;28;1136;-66
2022/06/28 12:35:55;;;;;;;;;;;;;;;;;;5111851;28;939;-67
2022/06/28 12:38:20;;;;;;;;;;;;;;;;;;5111961;28;955;-66
2022/06/28 12:40:46;;;;;;;;;;;;;;;;;;5112232;28;1910;-66
2022/06/28 12:43:11;;;;;;;;;;;;;;;;;;5110519;28;979;-66
2022/06/28 12:45:37;;;;;;;;;;;;;;;;;;5094021;28;1494;-66
2022/06/28 12:48:02;;;;;;;;;;;;;;;;;;5110833;28;1288;-67
2022/06/28 12:50:27;;;;;;;;;;;;;;;;;;5111017;28;1169;-68
2022/06/28 12:52:53;;;;;;;;;;;;;;;;;;5110382;28;991;-67
2022/06/28 12:55:18;;;;;;;;;;;;;;;;;;5110522;28;828;-67
2022/06/28 12:57:44;;;;;;;;;;;;;;;;;;5110435;28;892;-67
2022/06/28 13:00:11;;;;;;;;;;;;;;;;;;5109372;28;1898;-67
2022/06/28 13:02:37;;;;;;;;;;;;;;;;;;5109942;28;1028;-66
2022/06/28 13:05:02;;;;;;;;;;;;;;;;;;5111517;28;773;-67
2022/06/28 13:07:28;;;;;;;;;;;;;;;;;;5110661;28;954;-67
2022/06/28 13:09:53;;;;;;;;;;;;;;;;;;5111024;28;1041;-67
2022/06/28 13:12:18;;;;;;;;;;;;;;;;;;5091974;28;1339;-67
2022/06/28 13:14:43;;;;;;;;;;;;;;;;;;5110073;28;785;-66
2022/06/28 13:17:09;;;;;;;;;;;;;;;;;;5110204;28;1132;-67
2022/06/28 13:19:34;;;;;;;;;;;;;;;;;;5112246;28;895;-67
2022/06/28 13:21:59;;;;;;;;;;;;;;;;;;5110259;28;1963;-67
2022/06/28 13:24:24;;;;;;;;;;;;;;;;;;5111537;28;836;-67
2022/06/28 13:26:50;;;;;;;;;;;;;;;;;;5110804;28;895;-67
2022/06/28 13:29:15;;;;;;;;;;;;;;;;;;5111565;28;979;-67
2022/06/28 13:31:40;;;;;;;;;;;;;;;;;;5111931;28;805;-66
2022/06/28 13:34:06;;;;;;;;;;;;;;;;;;5109879;28;1178;-66
2022/06/28 13:36:32;;;;;;;;;;;;;;;;;;5092887;28;1132;-67
2022/06/28 13:38:57;;;;;;;;;;;;;;;;;;5111677;28;856;-66
2022/06/28 13:41:22;;;;;;;;;;;;;;;;;;5109914;28;1934;-66
2022/06/28 13:43:48;;;;;;;;;;;;;;;;;;5109280;28;935;-66
2022/06/28 13:46:13;;;;;;;;;;;;;;;;;;5110470;28;947;-66
2022/06/28 13:48:39;;;;;;;;;;;;;;;;;;5109627;28;1447;-66
2022/06/28 13:51:05;;;;;;;;;;;;;;;;;;5109553;28;1240;-66
2022/06/28 13:53:31;;;;;;;;;;;;;;;;;;5110651;28;900;-66
2022/06/28 13:55:57;;;;;;;;;;;;;;;;;;5109137;28;1203;-66
2022/06/28 13:58:22;;;;;;;;;;;;;;;;;;5108939;28;1276;-66
2022/06/28 14:00:48;;;;;;;;;;;;;;;;;;5109547;28;1917;-67
2022/06/28 14:03:13;;;;;;;;;;;;;;;;;;5109187;28;904;-66
2022/06/28 14:05:39;;;;;;;;;;;;;;;;;;5110968;28;954;-67
2022/06/28 14:08:05;;;;;;;;;;;;;;;;;;5109380;28;1208;-67
2022/06/28 14:10:30;;;;;;;;;;;;;;;;;;5112265;28;1189;-67
2022/06/28 14:12:57;;;;;;;;;;;;;;;;;;5113137;28;828;-66
2022/06/28 14:15:22;;;;;;;;;;;;;;;;;;5112692;28;829;-67
2022/06/28 14:17:48;;;;;;;;;;;;;;;;;;5096406;28;1317;-67
2022/06/28 14:20:13;;;;;;;;;;;;;;;;;;5112331;28;1882;-66
2022/06/28 14:22:38;;;;;;;;;;;;;;;;;;5113162;28;1185;-67
2022/06/28 14:25:04;;;;;;;;;;;;;;;;;;5114406;28;910;-67
2022/06/28 14:27:29;;;;;;;;;;;;;;;;;;5113919;28;871;-68
2022/06/28 14:29:54;;;;;;;;;;;;;;;;;;5114245;28;939;-67
2022/06/28 14:32:19;;;;;;;;;;;;;;;;;;5112567;28;927;-67
2022/06/28 14:34:45;;;;;;;;;;;;;;;;;;5113677;27;1087;-67
2022/06/28 14:37:10;;;;;;;;;;;;;;;;;;5113235;28;840;-66
2022/06/28 14:39:36;;;;;;;;;;;;;;;;;;5113524;28;828;-67
2022/06/28 14:42:01;;;;;;;;;;;;;;;;;;5112276;28;1914;-67
2022/06/28 14:44:27;;;;;;;;;;;;;;;;;;5113295;28;967;-67
2022/06/28 14:46:52;;;;;;;;;;;;;;;;;;5113744;28;912;-66
2022/06/28 14:49:17;;;;;;;;;;;;;;;;;;5094676;28;1217;-66
2022/06/28 14:51:43;;;;;;;;;;;;;;;;;;5113799;28;891;-66
2022/06/28 14:54:08;;;;;;;;;;;;;;;;;;5113876;28;951;-66
2022/06/28 14:56:34;;;;;;;;;;;;;;;;;;5112977;27;823;-67
2022/06/28 14:59:00;;;;;;;;;;;;;;;;;;5113377;28;824;-66
2022/06/28 15:01:25;;;;;;;;;;;;;;;;;;5112903;28;1890;-66
2022/06/28 15:03:51;;;;;;;;;;;;;;;;;;5112052;28;1287;-66
2022/06/28 15:06:16;;;;;;;;;;;;;;;;;;5111930;28;1411;-66
2022/06/28 15:08:42;;;;;;;;;;;;;;;;;;5114183;28;1295;-66
2022/06/28 15:11:08;;;;;;;;;;;;;;;;;;5114260;28;1072;-66
2022/06/28 15:13:33;;;;;;;;;;;;;;;;;;5113495;28;825;-66
2022/06/28 15:15:59;;;;;;;;;;;;;;;;;;5112367;28;1202;-66
2022/06/28 15:18:24;;;;;;;;;;;;;;;;;;5112921;28;840;-66
2022/06/28 15:20:49;;;;;;;;;;;;;;;;;;5113151;28;1949;-66
2022/06/28 15:31:27;;;;;;;;;;;;;;;;;;5112630;28;650;-66
2022/06/28 15:33:52;;;;;;;;;;;;;;;;;;5112757;28;1142;-67
2022/06/28 15:36:18;;;;;;;;;;;;;;;;;;5112245;28;963;-66
2022/06/28 15:38:43;;;;;;;;;;;;;;;;;;5112509;27;797;-66
2022/06/28 15:41:08;;;;;;;;;;;;;;;;;;5111526;28;1961;-67
2022/06/28 15:43:34;;;;;;;;;;;;;;;;;;5110883;28;1177;-66
2022/06/28 15:45:59;;;;;;;;;;;;;;;;;;5112543;28;1016;-66
2022/06/28 15:48:24;;;;;;;;;;;;;;;;;;5112049;28;840;-66
2022/06/28 15:50:49;;;;;;;;;;;;;;;;;;5112611;28;840;-66
2022/06/28 15:53:15;;;;;;;;;;;;;;;;;;5110883;28;922;-66
2022/06/28 15:55:40;;;;;;;;;;;;;;;;;;5112687;28;891;-66
2022/06/28 15:58:07;;;;;;;;;;;;;;;;;;5094477;28;1218;-66
2022/06/28 16:00:32;;;;;;;;;;;;;;;;;;5110553;28;1890;-67
2022/06/28 16:02:58;;;;;;;;;;;;;;;;;;5111121;28;1225;-66
2022/06/28 16:05:24;;;;;;;;;;;;;;;;;;5112072;28;867;-66
2022/06/28 16:07:49;;;;;;;;;;;;;;;;;;5093957;28;1233;-67
2022/06/28 16:10:15;;;;;;;;;;;;;;;;;;5110667;28;1261;-66
2022/06/28 16:12:52;;;;;;;;;;;;;;;;;;5110409;28;1284;-67
2022/06/28 16:15:21;;;;;;;;;;;;;;;;;;5111844;28;922;-66
2022/06/28 16:17:46;;;;;;;;;;;;;;;;;;5111840;28;801;-66
2022/06/28 16:20:12;;;;;;;;;;;;;;;;;;5093463;28;1902;-66
2022/06/28 16:22:41;;;;;;;;;;;;;;;;;;5111028;28;1332;-66
2022/06/28 16:25:07;;;;;;;;;;;;;;;;;;5110339;28;864;-66
2022/06/28 16:27:32;;;;;;;;;;;;;;;;;;5092760;28;1249;-66
2022/06/28 16:29:58;;;;;;;;;;;;;;;;;;5111583;28;1037;-67
2022/06/28 16:32:23;;;;;;;;;;;;;;;;;;5110517;28;979;-68
2022/06/28 16:34:48;;;;;;;;;;;;;;;;;;5112042;28;1179;-66
2022/06/28 16:37:14;;;;;;;;;;;;;;;;;;5110181;28;1197;-65
2022/06/28 16:39:39;;;;;;;;;;;;;;;;;;5110162;28;1146;-66
2022/06/28 16:42:04;;;;;;;;;;;;;;;;;;5093335;28;1985;-67
2022/06/28 16:44:30;;;;;;;;;;;;;;;;;;5109695;28;1272;-66
2022/06/28 16:46:55;;;;;;;;;;;;;;;;;;5110366;28;833;-66
2022/06/28 16:49:20;;;;;;;;;;;;;;;;;;5111118;28;1023;-66
2022/06/28 16:51:45;;;;;;;;;;;;;;;;;;5111593;28;1051;-66
2022/06/28 16:54:10;;;;;;;;;;;;;;;;;;5110509;28;1083;-66
2022/06/28 16:56:36;;;;;;;;;;;;;;;;;;5110600;28;871;-66
2022/06/28 16:59:01;;;;;;;;;;;;;;;;;;5112238;28;891;-66
2022/06/28 17:01:26;;;;;;;;;;;;;;;;;;5110118;28;1901;-66
2022/06/28 17:03:52;;;;;;;;;;;;;;;;;;5110663;28;899;-66
2022/06/28 17:09:03;;;;;;;;;;;;;;;;;;5100354;28;1063;-66
2022/06/28 17:11:28;;;;;;;;;;;;;;;;;;5109334;28;1185;-66
2022/06/28 17:13:53;;;;;;;;;;;;;;;;;;5110767;28;884;-66
2022/06/28 17:16:19;;;;;;;;;;;;;;;;;;5109560;28;1283;-66
2022/06/28 17:18:44;;;;;;;;;;;;;;;;;;5110883;28;808;-66
2022/06/28 17:21:10;;;;;;;;;;;;;;;;;;5110387;28;1963;-66
2022/06/28 17:23:35;;;;;;;;;;;;;;;;;;5110915;28;1010;-65
2022/06/28 17:26:00;;;;;;;;;;;;;;;;;;5092685;28;1316;-65